createdAt,value
2023-03-06T00:01:02.528Z,64.92
2023-03-06T00:06:04.933Z,64.63
2023-03-06T00:11:07.250Z,64.16
2023-03-06T00:16:10.308Z,64.77
2023-03-06T00:21:12.503Z,64.50
2023-03-06T00:26:14.690Z,64.02
2023-03-06T00:31:16.960Z,64.31
2023-03-06T00:36:19.227Z,64.61
2023-03-06T00:41:21.556Z,64.49
2023-03-06T00:46:24.039Z,64.45
2023-03-06T00:51:26.404Z,68.39
2023-03-06T00:56:28.682Z,68.44
2023-03-06T01:01:30.877Z,69.24
2023-03-06T01:06:33.080Z,70.33
2023-03-06T01:11:35.244Z,70.33
2023-03-06T01:16:37.598Z,68.83
2023-03-06T01:21:39.909Z,67.91
2023-03-06T01:26:42.051Z,66.06
2023-03-06T01:31:44.377Z,65.52
2023-03-06T01:36:46.567Z,64.52
2023-03-06T01:41:49.079Z,65.02
2023-03-06T01:46:51.385Z,64.19
2023-03-06T01:52:02.372Z,64.09
2023-03-06T01:57:09.944Z,64.01
2023-03-06T02:02:16.025Z,64.23
2023-03-06T02:07:21.221Z,64.46
2023-03-06T02:12:24.296Z,63.83
2023-03-06T02:17:27.983Z,64.07
2023-03-06T02:22:49.018Z,63.84
2023-03-06T02:27:51.155Z,63.54
2023-03-06T02:32:53.589Z,63.69
2023-03-06T02:37:58.144Z,63.76
2023-03-06T02:43:00.356Z,64.04
2023-03-06T02:48:03.467Z,63.61
2023-03-06T02:53:06.785Z,63.41
2023-03-06T02:58:09.871Z,63.17
2023-03-06T03:03:12.138Z,63.34
2023-03-06T03:08:14.350Z,63.32
2023-03-06T03:13:16.559Z,63.19
2023-03-06T03:18:18.648Z,63.47
2023-03-06T03:23:21.220Z,64.91
2023-03-06T03:28:23.474Z,64.92
2023-03-06T03:33:26.267Z,65.05
2023-03-06T03:38:28.759Z,65.71
2023-03-06T03:43:31.268Z,65.10
2023-03-06T03:48:33.650Z,65.05
2023-03-06T03:53:35.892Z,64.85
2023-03-06T03:58:38.075Z,65.29
2023-03-06T04:03:40.311Z,65.64
2023-03-06T04:08:42.772Z,65.55
2023-03-06T04:13:45.016Z,65.05
2023-03-06T04:18:47.113Z,64.31
2023-03-06T04:23:49.238Z,64.55
2023-03-06T04:28:51.393Z,64.30
2023-03-06T04:33:53.669Z,63.98
2023-03-06T04:38:56.299Z,64.68
2023-03-06T04:43:58.450Z,64.70
2023-03-06T04:49:00.646Z,64.66
2023-03-06T04:54:04.195Z,64.60
2023-03-06T04:59:06.359Z,64.42
2023-03-06T05:04:08.465Z,64.97
2023-03-06T05:09:10.669Z,64.93
2023-03-06T05:14:12.947Z,64.63
2023-03-06T05:19:15.709Z,64.43
2023-03-06T05:24:17.828Z,64.52
2023-03-06T05:29:20.130Z,64.71
2023-03-06T05:34:22.366Z,64.78
2023-03-06T05:39:24.526Z,64.70
2023-03-06T05:44:32.526Z,65.07
2023-03-06T05:49:36.225Z,65.20
2023-03-06T05:54:38.676Z,66.39
2023-03-06T05:59:40.898Z,66.64
2023-03-06T06:04:43.965Z,66.31
2023-03-06T06:09:47.088Z,67.12
2023-03-06T06:14:49.709Z,66.79
2023-03-06T06:19:51.912Z,67.63
2023-03-06T06:24:54.063Z,67.00
2023-03-06T06:29:56.204Z,67.22
2023-03-06T06:34:58.598Z,67.73
2023-03-06T06:40:00.725Z,66.50
2023-03-06T06:45:05.603Z,67.18
2023-03-06T06:50:14.277Z,67.35
2023-03-06T06:55:16.894Z,67.50
2023-03-06T07:00:19.703Z,67.14
2023-03-06T07:05:22.243Z,68.29
2023-03-06T07:10:24.406Z,68.21
2023-03-06T07:15:27.759Z,68.54
2023-03-06T07:20:30.055Z,68.53
2023-03-06T07:25:32.377Z,68.13
2023-03-06T07:30:34.591Z,68.02
2023-03-06T07:35:36.931Z,67.79
2023-03-06T07:40:39.513Z,67.38
2023-03-06T07:45:41.732Z,67.30
2023-03-06T07:50:44.044Z,67.11
2023-03-06T07:55:46.165Z,67.63
2023-03-06T08:00:48.405Z,67.15
2023-03-06T08:05:50.670Z,66.68
2023-03-06T08:10:53.236Z,65.88
2023-03-06T08:15:56.681Z,65.90
2023-03-06T08:21:09.708Z,65.48
2023-03-06T08:26:20.709Z,65.67
2023-03-06T08:31:31.310Z,65.56
2023-03-06T08:36:34.380Z,65.47
2023-03-06T08:41:37.604Z,65.52
2023-03-06T08:46:40.562Z,64.31
2023-03-06T08:51:43.385Z,63.10
2023-03-06T08:56:45.702Z,62.52
2023-03-06T09:01:48.267Z,62.55
2023-03-06T09:06:50.765Z,61.93
2023-03-06T09:11:53.973Z,60.88
2023-03-06T09:16:56.310Z,60.50
2023-03-06T09:22:01.262Z,58.92
2023-03-06T09:27:04.966Z,58.50
2023-03-06T09:32:07.575Z,57.46
2023-03-06T09:37:09.765Z,57.35
2023-03-06T09:42:19.221Z,54.55
2023-03-06T09:47:24.355Z,53.50
2023-03-06T09:52:43.860Z,53.86
2023-03-06T09:57:53.108Z,53.27
2023-03-06T10:03:10.778Z,50.05
2023-03-06T10:08:23.735Z,50.42
2023-03-06T10:13:33.136Z,48.96
2023-03-06T10:18:38.824Z,48.27
2023-03-06T10:24:05.017Z,46.81
2023-03-06T10:29:13.174Z,47.58
2023-03-06T10:34:29.107Z,47.59
2023-03-06T10:39:32.283Z,47.22
2023-03-06T10:44:34.718Z,45.65
2023-03-06T10:49:38.193Z,44.13
2023-03-06T10:54:42.688Z,44.67
2023-03-06T10:59:57.621Z,44.51
2023-03-06T11:05:03.087Z,44.12
2023-03-06T11:10:18.345Z,42.17
2023-03-06T11:15:25.167Z,41.02
2023-03-06T11:20:51.512Z,39.40
2023-03-06T11:26:15.869Z,39.05
2023-03-06T11:31:25.937Z,37.63
2023-03-06T11:36:57.380Z,34.66
2023-03-06T11:42:20.769Z,35.07
2023-03-06T11:47:43.086Z,33.53
2023-03-06T11:53:07.153Z,34.97
2023-03-06T11:58:30.511Z,34.07
2023-03-06T12:04:03.833Z,35.70
2023-03-06T12:09:15.128Z,35.06
2023-03-06T12:14:33.150Z,34.40
2023-03-06T12:19:47.261Z,35.83
2023-03-06T12:25:12.129Z,37.06
2023-03-06T12:31:03.114Z,38.04
2023-03-06T12:36:56.109Z,37.40
2023-03-06T12:42:22.882Z,37.19
2023-03-06T12:47:28.598Z,37.41
2023-03-06T12:52:33.591Z,35.34
2023-03-06T12:57:35.937Z,36.58
2023-03-06T13:03:24.618Z,35.64
2023-03-06T13:08:47.085Z,35.79
2023-03-06T13:13:49.530Z,35.69
2023-03-06T13:19:19.347Z,36.43
2023-03-06T13:24:27.176Z,34.83
2023-03-06T13:29:38.440Z,33.84
2023-03-06T13:34:52.074Z,35.00
2023-03-06T13:40:00.006Z,35.09
2023-03-06T13:45:27.654Z,33.31
2023-03-06T13:50:43.128Z,32.63
2023-03-06T13:56:19.930Z,32.84
2023-03-06T14:01:47.377Z,32.16
2023-03-06T14:07:04.405Z,32.06
2023-03-06T14:12:13.699Z,30.89
2023-03-06T14:17:34.799Z,31.72
2023-03-06T14:22:37.768Z,30.85
2023-03-06T14:27:50.381Z,31.34
2023-03-06T14:32:55.198Z,31.66
2023-03-06T14:38:04.957Z,32.71
2023-03-06T14:43:21.146Z,33.50
2023-03-06T14:48:25.730Z,34.60
2023-03-06T14:53:30.969Z,36.00
2023-03-06T14:58:45.523Z,36.71
2023-03-06T15:03:53.396Z,37.33
2023-03-06T15:09:07.264Z,37.36
2023-03-06T15:14:21.916Z,38.39
2023-03-06T15:19:24.363Z,39.18
2023-03-06T15:24:36.337Z,39.17
2023-03-06T15:29:39.484Z,39.19
2023-03-06T15:34:41.791Z,38.49
2023-03-06T15:39:46.808Z,38.17
2023-03-06T15:44:54.266Z,39.18
2023-03-06T15:49:57.268Z,39.35
2023-03-06T15:55:00.235Z,40.19
2023-03-06T16:00:03.716Z,39.92
2023-03-06T16:05:16.535Z,41.02
2023-03-06T16:10:21.784Z,42.36
2023-03-06T16:15:30.531Z,44.03
2023-03-06T16:20:33.846Z,44.86
2023-03-06T16:25:36.967Z,45.63
2023-03-06T16:30:39.208Z,46.92
2023-03-06T16:35:41.708Z,48.47
2023-03-06T16:40:44.200Z,48.99
2023-03-06T16:45:46.888Z,46.95
2023-03-06T16:50:49.377Z,45.58
2023-03-06T16:55:51.648Z,46.54
2023-03-06T17:00:54.920Z,46.77
2023-03-06T17:05:57.162Z,47.57
2023-03-06T17:10:59.782Z,48.12
2023-03-06T17:16:04.157Z,49.14
2023-03-06T17:21:08.969Z,50.19
2023-03-06T17:26:12.771Z,50.27
2023-03-06T17:31:23.753Z,48.35
2023-03-06T17:36:26.685Z,48.30
2023-03-06T17:41:29.709Z,49.71
2023-03-06T17:46:32.461Z,50.70
2023-03-06T17:51:34.677Z,49.14
2023-03-06T17:56:38.645Z,47.33
2023-03-06T18:01:41.675Z,46.32
2023-03-06T18:06:43.868Z,44.76
2023-03-06T18:11:46.180Z,45.82
2023-03-06T18:16:48.872Z,47.84
2023-03-06T18:21:51.022Z,49.67
2023-03-06T18:26:53.147Z,50.85
2023-03-06T18:31:57.208Z,51.55
2023-03-06T18:36:59.365Z,52.65
2023-03-06T18:42:02.741Z,51.26
2023-03-06T18:47:05.046Z,49.67
2023-03-06T18:52:07.346Z,50.35
2023-03-06T18:57:12.613Z,50.56
2023-03-06T19:02:15.621Z,50.78
2023-03-06T19:07:17.836Z,50.79
2023-03-06T19:12:20.561Z,51.73
2023-03-06T19:17:24.958Z,50.95
2023-03-06T19:22:27.322Z,50.91
2023-03-06T19:27:30.578Z,51.21
2023-03-06T19:32:33.586Z,50.13
2023-03-06T19:37:36.857Z,49.53
2023-03-06T19:42:39.286Z,48.82
2023-03-06T19:47:41.610Z,48.95
2023-03-06T19:52:43.809Z,49.03
2023-03-06T19:57:46.077Z,48.98
2023-03-06T20:02:48.236Z,48.98
2023-03-06T20:07:50.875Z,49.28
2023-03-06T20:12:53.555Z,48.95
2023-03-06T20:17:56.879Z,48.29
2023-03-06T20:23:04.592Z,48.59
2023-03-06T20:28:06.754Z,48.38
2023-03-06T20:33:09.426Z,48.40
2023-03-06T20:38:12.142Z,49.46
2023-03-06T20:43:14.382Z,51.49
2023-03-06T20:48:16.639Z,50.60
2023-03-06T20:53:19.516Z,50.59
2023-03-06T20:58:23.682Z,50.92
2023-03-06T21:03:26.042Z,50.63
2023-03-06T21:08:28.285Z,49.16
2023-03-06T21:13:30.514Z,48.56
2023-03-06T21:18:32.823Z,47.77
2023-03-06T21:23:35.153Z,47.62
2023-03-06T21:34:05.340Z,47.77
2023-03-06T21:39:07.848Z,47.86
2023-03-06T21:44:11.393Z,47.74
2023-03-06T21:49:19.075Z,47.87
2023-03-06T21:54:21.911Z,47.82
2023-03-06T21:59:24.360Z,47.38
2023-03-06T22:04:36.405Z,47.64
2023-03-06T22:09:38.835Z,47.48
2023-03-06T22:14:45.647Z,47.65
2023-03-06T22:19:50.429Z,47.35
2023-03-06T22:25:00.329Z,47.38
2023-03-06T22:30:03.730Z,47.24
2023-03-06T22:35:10.005Z,47.68
2023-03-06T22:40:14.528Z,49.21
2023-03-06T22:45:17.313Z,49.58
2023-03-06T22:50:19.580Z,49.72
2023-03-06T22:55:21.731Z,49.79
2023-03-06T23:00:24.053Z,49.36
2023-03-06T23:05:28.468Z,49.04
2023-03-06T23:10:31.510Z,50.77
2023-03-06T23:15:36.628Z,49.87
2023-03-06T23:20:45.424Z,50.05
2023-03-06T23:25:47.602Z,50.35
2023-03-06T23:30:49.886Z,50.68
2023-03-06T23:35:52.252Z,50.57
2023-03-06T23:40:54.464Z,50.54
2023-03-06T23:45:57.253Z,50.95
2023-03-06T23:50:59.631Z,50.86
2023-03-06T23:56:03.360Z,51.65
